Time;durP1;ratioP1;P1;durP2;ratioP2;P2;SDS_P1;SDS_P2;PMS_P1;PMS_P2;Temp;Humidity;BMP_temperature;BMP_pressure;BME280_temperature;BME280_humidity;BME280_pressure;Samples;Min_cycle;Max_cycle;Signal;HPM_P1;HPM_P2
2021/09/14 00:01:48;;;;;;;11.17;5.50;;;;;;;;;;4991929;28;20460;-91
2021/09/14 00:04:15;;;;;;;6.40;5.60;;;;;;;;;;4997116;28;20441;-92
2021/09/14 00:06:42;;;;;;;6.80;6.17;;;;;;;;;;4996292;28;20453;-92
2021/09/14 00:09:09;;;;;;;6.13;5.60;;;15.70;99.90;;;;;;4994233;28;20499;-90
2021/09/14 00:11:39;;;;;;;7.83;5.70;;;15.60;99.90;;;;;;4998484;28;20913;-91
2021/09/14 00:14:08;;;;;;;5.80;5.30;;;;;;;;;;5000559;28;20489;-91
2021/09/14 00:16:35;;;;;;;6.17;5.57;;;;;;;;;;4999814;28;20460;-91
2021/09/14 00:19:02;;;;;;;6.80;5.57;;;;;;;;;;5000083;28;20488;-91
2021/09/14 00:21:29;;;;;;;5.90;5.30;;;;;;;;;;4999769;28;20448;-91
2021/09/14 00:23:56;;;;;;;6.70;5.30;;;;;;;;;;4998510;28;20461;-91
2021/09/14 00:26:24;;;;;;;6.03;4.93;;;;;;;;;;4997338;28;20453;-90
2021/09/14 00:28:51;;;;;;;7.10;6.00;;;;;;;;;;4997552;28;20449;-91
2021/09/14 00:31:19;;;;;;;7.50;5.30;;;;;;;;;;4996898;28;20462;-90
2021/09/14 00:33:46;;;;;;;6.70;5.57;;;;;;;;;;4999561;28;21015;-92
2021/09/14 00:36:13;;;;;;;10.50;5.80;;;;;;;;;;4999816;28;20449;-90
2021/09/14 00:38:41;;;;;;;6.70;6.10;;;;;;;;;;5000270;28;20764;-90
2021/09/14 00:41:08;;;;;;;6.07;5.00;;;;;;;;;;4997005;28;20453;-92
2021/09/14 00:43:35;;;;;;;6.60;6.00;;;;;;;;;;4999341;28;20468;-89
2021/09/14 00:46:02;;;;;;;5.43;4.93;;;;;;;;;;4996799;28;20465;-93
2021/09/14 00:48:30;;;;;;;5.70;5.23;;;15.20;99.90;;;;;;4996548;28;20441;-90
2021/09/14 00:50:57;;;;;;;5.40;4.90;;;;;;;;;;4999624;28;20955;-91
2021/09/14 00:53:27;;;;;;;7.33;5.60;;;15.20;99.90;;;;;;4999685;28;20485;-91
2021/09/14 00:55:58;;;;;;;5.73;5.13;;;15.20;99.90;;;;;;4999358;28;20445;-90
2021/09/14 00:58:25;;;;;;;6.23;5.63;;;15.30;99.90;;;;;;5001990;28;20492;-92
2021/09/14 01:00:52;;;;;;;6.40;5.37;;;;;;;;;;4998421;28;21069;-90
2021/09/14 01:03:19;;;;;;;6.40;5.80;;;;;;;;;;4998084;28;20484;-91
2021/09/14 01:05:48;;;;;;;6.90;5.70;;;15.30;99.90;;;;;;4998435;28;20437;-93
2021/09/14 01:08:15;;;;;;;10.30;6.20;;;;;;;;;;4993842;28;20438;-91
2021/09/14 01:10:44;;;;;;;8.07;5.77;;;15.30;99.90;;;;;;4999751;28;20441;-91
2021/09/14 01:13:11;;;;;;;6.73;6.17;;;;;;;;;;4995649;28;20487;-90
2021/09/14 01:15:38;;;;;;;6.70;6.10;;;;;;;;;;4997051;28;20450;-90
2021/09/14 01:18:05;;;;;;;6.00;5.40;;;;;;;;;;4999273;28;20461;-93
2021/09/14 01:20:33;;;;;;;5.83;5.33;;;;;;;;;;4995309;28;20453;-90
2021/09/14 01:23:01;;;;;;;8.37;5.53;;;15.20;99.90;;;;;;4997180;28;20932;-92
2021/09/14 01:25:28;;;;;;;6.20;5.30;;;;;;;;;;4995585;28;20512;-91
2021/09/14 01:28:01;;;;;;;7.93;5.50;;;15.10;99.90;;;;;;4998572;28;20480;-90
2021/09/14 01:30:29;;;;;;;6.40;5.20;;;;;;;;;;4999955;23;20481;-91
2021/09/14 01:32:56;;;;;;;5.40;5.00;;;;;;;;;;4996486;28;20461;-91
2021/09/14 01:35:25;;;;;;;8.23;5.73;;;14.90;99.90;;;;;;4998572;28;20460;-90
2021/09/14 01:37:52;;;;;;;5.33;4.80;;;;;;;;;;4998399;28;20757;-92
2021/09/14 01:40:20;;;;;;;6.13;5.50;;;14.90;99.90;;;;;;4995860;28;20461;-90
2021/09/14 01:42:48;;;;;;;7.00;6.17;;;;;;;;;;4998112;28;20809;-90
2021/09/14 01:45:15;;;;;;;6.70;6.03;;;;;;;;;;4994852;28;20446;-90
2021/09/14 01:47:43;;;;;;;6.73;6.07;;;14.70;99.90;;;;;;4994246;28;20504;-91
2021/09/14 01:50:13;;;;;;;6.97;5.50;;;14.70;99.90;;;;;;4998194;28;20450;-89
2021/09/14 01:52:40;;;;;;;6.70;6.10;;;;;;;;;;4998830;28;20541;-91
2021/09/14 01:55:09;;;;;;;6.47;5.87;;;14.70;99.90;;;;;;4994166;28;20489;-91
2021/09/14 01:57:39;;;;;;;6.03;5.50;;;14.60;99.90;;;;;;4998329;28;20988;-90
2021/09/14 02:00:11;;;;;;;7.00;6.40;;;14.50;99.90;;;;;;4996540;28;20578;-92
2021/09/14 02:02:52;;;;;;;6.67;5.80;;;;;;;;;;4992574;28;20976;-91
2021/09/14 02:05:31;;;;;;;6.40;5.27;;;;;;;;;;4997417;28;20453;-90
2021/09/14 02:08:14;;;;;;;5.60;5.10;;;;;;;;;;4997505;28;20883;-90
2021/09/14 02:29:57;;;;;;;6.23;5.63;;;;;;;;;;4998038;28;20798;-91
2021/09/14 02:38:37;;;;;;;7.67;5.30;;;;;;;;;;4998329;28;21044;-90
2021/09/14 02:41:15;;;;;;;6.43;5.80;;;;;;;;;;4999357;28;21060;-91
2021/09/14 02:43:56;;;;;;;6.33;5.73;;;;;;;;;;4998367;28;20448;-91
2021/09/14 03:00:09;;;;;;;5.70;5.20;;;14.00;99.90;;;;;;4995416;28;20457;-92
2021/09/14 03:02:37;;;;;;;6.20;5.50;;;14.10;99.90;;;;;;4995743;28;20449;-90
2021/09/14 03:05:05;;;;;;;6.57;5.37;;;;;;;;;;4995922;28;20453;-90
2021/09/14 03:07:32;;;;;;;6.57;5.97;;;;;;;;;;4996532;28;20842;-90
2021/09/14 03:09:59;;;;;;;6.40;5.80;;;;;;;;;;4996122;28;20453;-90
2021/09/14 03:12:26;;;;;;;5.90;5.40;;;;;;;;;;4995776;28;20446;-92
2021/09/14 03:14:53;;;;;;;6.50;5.90;;;;;;;;;;4992333;28;20496;-91
2021/09/14 03:17:20;;;;;;;6.70;5.57;;;;;;;;;;4992905;28;20937;-90
2021/09/14 03:19:49;;;;;;;7.30;6.00;;;14.10;99.90;;;;;;4992668;28;20448;-90
2021/09/14 03:22:16;;;;;;;5.50;5.00;;;;;;;;;;4987686;28;21048;-90
2021/09/14 03:24:43;;;;;;;6.53;5.93;;;;;;;;;;4995074;28;20811;-91
2021/09/14 03:27:10;;;;;;;7.73;7.00;;;;;;;;;;4992448;28;20453;-92
2021/09/14 03:29:37;;;;;;;7.90;7.10;;;;;;;;;;4988668;28;20489;-91
2021/09/14 03:32:05;;;;;;;8.93;6.70;;;14.50;99.90;;;;;;4995315;28;20938;-90
2021/09/14 03:34:32;;;;;;;7.37;6.67;;;;;;;;;;4991984;28;20999;-89
2021/09/14 03:37:00;;;;;;;7.77;6.37;;;14.20;99.90;;;;;;4989525;28;20504;-89
2021/09/14 03:39:27;;;;;;;7.63;6.83;;;;;;;;;;4994732;28;20975;-90
2021/09/14 03:41:54;;;;;;;6.57;5.70;;;;;;;;;;4995846;28;20450;-90
2021/09/14 03:44:22;;;;;;;7.93;6.27;;;;;;;;;;4996345;28;20824;-90
2021/09/14 03:46:49;;;;;;;6.80;6.20;;;;;;;;;;4994055;28;20455;-91
2021/09/14 03:49:16;;;;;;;6.70;5.97;;;;;;;;;;4999260;28;20448;-89
2021/09/14 03:51:43;;;;;;;6.70;6.00;;;;;;;;;;4998708;28;20920;-89
2021/09/14 03:54:11;;;;;;;6.60;5.90;;;14.10;99.90;;;;;;4999098;28;20489;-89
2021/09/14 03:56:39;;;;;;;7.17;6.43;;;;;;;;;;4998339;28;20481;-90
2021/09/14 03:59:06;;;;;;;7.77;6.47;;;;;;;;;;4995703;28;20456;-91
2021/09/14 04:01:37;;;;;;;6.90;5.40;;;;;;;;;;4998436;28;20453;-90
2021/09/14 04:04:10;;;;;;;6.83;6.13;;;;;;;;;;5000069;28;20556;-91
2021/09/14 04:06:53;;;;;;;7.20;6.50;;;;;;;;;;4999202;28;20445;-92
2021/09/14 04:09:22;;;;;;;9.50;6.63;;;;;;;;;;4997901;28;20544;-92
2021/09/14 04:11:50;;;;;;;6.90;6.20;;;;;;;;;;5001922;28;20833;-91
2021/09/14 04:16:58;;;;;;;6.70;6.10;;;;;;;;;;5006799;28;20441;-91
2021/09/14 04:19:27;;;;;;;6.97;5.77;;;;;;;;;;5001537;28;20453;-92
2021/09/14 04:21:54;;;;;;;7.13;6.43;;;;;;;;;;4999912;28;20547;-90
2021/09/14 04:24:22;;;;;;;8.70;7.07;;;14.00;99.90;;;;;;4995949;28;20464;-92
2021/09/14 04:26:49;;;;;;;7.27;6.37;;;;;;;;;;4996395;28;20449;-91
2021/09/14 04:29:16;;;;;;;8.37;7.13;;;;;;;;;;4995109;28;20477;-92
2021/09/14 04:31:43;;;;;;;10.57;6.50;;;;;;;;;;4998566;28;20460;-91
2021/09/14 04:34:11;;;;;;;11.30;7.90;;;;;;;;;;4996558;28;20539;-93
2021/09/14 04:36:38;;;;;;;9.87;8.80;;;;;;;;;;4999174;28;20445;-92
2021/09/14 04:39:05;;;;;;;9.27;8.37;;;;;;;;;;4998932;28;20963;-92
2021/09/14 04:41:33;;;;;;;10.40;6.97;;;14.10;99.90;;;;;;5000433;28;20465;-92
2021/09/14 04:44:01;;;;;;;7.40;6.70;;;;;;;;;;4997613;28;20814;-92
2021/09/14 04:46:28;;;;;;;11.57;6.70;;;;;;;;;;4997648;28;20458;-91
2021/09/14 04:48:55;;;;;;;11.30;8.10;;;;;;;;;;5002322;28;20460;-91
2021/09/14 04:51:22;;;;;;;9.67;8.17;;;;;;;;;;4999519;28;20440;-91
2021/09/14 04:53:49;;;;;;;8.90;7.00;;;;;;;;;;4998229;28;20455;-91
2021/09/14 04:56:16;;;;;;;9.23;8.33;;;;;;;;;;4995705;28;20485;-90
2021/09/14 04:58:46;;;;;;;10.53;8.90;;;13.90;99.90;;;;;;4998051;28;20457;-93
2021/09/14 05:01:15;;;;;;;9.37;8.10;;;13.90;99.90;;;;;;4994726;28;20561;-90
2021/09/14 05:03:42;;;;;;;10.30;7.80;;;;;;;;;;4999365;28;20461;-92
2021/09/14 05:06:10;;;;;;;9.00;7.90;;;;;;;;;;4993449;28;20461;-91
2021/09/14 05:08:37;;;;;;;8.50;7.53;;;;;;;;;;5002597;28;20441;-91
2021/09/14 05:11:05;;;;;;;11.13;8.10;;;13.90;99.90;;;;;;4998299;28;20457;-91
2021/09/14 05:13:32;;;;;;;10.37;7.80;;;;;;;;;;5002064;28;20454;-91
2021/09/14 05:16:01;;;;;;;9.30;8.40;;;14.00;99.90;;;;;;4995905;28;20497;-91
2021/09/14 05:18:29;;;;;;;9.60;8.00;;;;;;;;;;4996409;28;20453;-91
2021/09/14 05:20:57;;;;;;;12.17;9.30;;;;;;;;;;4996093;28;20449;-92
2021/09/14 05:23:30;;;;;;;17.50;10.00;;;;;;;;;;4996937;28;20544;-89
2021/09/14 05:25:58;;;;;;;15.50;8.70;;;14.10;99.90;;;;;;4996471;28;20453;-89
2021/09/14 05:28:25;;;;;;;14.63;9.50;;;;;;;;;;4997710;28;20449;-91
2021/09/14 05:30:52;;;;;;;9.80;8.50;;;;;;;;;;4997984;28;20452;-90
2021/09/14 05:33:21;;;;;;;11.40;9.00;;;14.30;99.90;;;;;;4999198;28;20461;-89
2021/09/14 05:35:50;;;;;;;11.33;8.67;;;14.30;99.90;;;;;;4995032;28;20548;-89
2021/09/14 05:38:19;;;;;;;14.60;8.73;;;14.50;99.90;;;;;;4996866;28;20975;-91
2021/09/14 05:40:47;;;;;;;9.80;8.87;;;14.70;99.90;;;;;;4998486;28;20457;-90
2021/09/14 05:43:14;;;;;;;8.83;7.90;;;;;;;;;;4998742;28;20453;-91
2021/09/14 05:45:42;;;;;;;9.33;8.33;;;;;;;;;;4997588;28;20461;-93
2021/09/14 05:48:09;;;;;;;11.80;8.10;;;;;;;;;;5006115;28;20457;-88
2021/09/14 05:50:37;;;;;;;14.10;7.93;;;15.80;99.90;;;;;;5000702;28;20454;-91
2021/09/14 05:53:04;;;;;;;11.10;8.10;;;16.30;99.90;;;;;;4998556;28;20467;-90
2021/09/14 05:55:32;;;;;;;7.97;7.10;;;;;;;;;;4997151;28;20493;-93
2021/09/14 05:57:59;;;;;;;8.13;7.33;;;;;;;;;;5000842;28;20460;-94
2021/09/14 06:00:26;;;;;;;10.53;7.07;;;;;;;;;;4999006;28;20941;-91
2021/09/14 06:02:53;;;;;;;9.30;7.33;;;;;;;;;;5000796;28;20667;-94
2021/09/14 06:05:20;;;;;;;7.77;6.70;;;;;;;;;;4999803;28;20449;-93
2021/09/14 06:07:48;;;;;;;9.20;6.77;;;17.80;99.90;;;;;;4999644;28;20430;-93
2021/09/14 06:10:16;;;;;;;12.97;6.67;;;;;;;;;;4999718;28;20441;-92
2021/09/14 06:12:43;;;;;;;11.47;7.23;;;;;;;;;;5000913;28;20464;-92
2021/09/14 06:15:11;;;;;;;13.23;5.83;;;18.50;99.90;;;;;;4998985;28;20995;-94
2021/09/14 06:17:39;;;;;;;13.07;7.27;;;;;;;;;;4996902;28;20908;-90
2021/09/14 06:20:07;;;;;;;6.77;6.00;;;18.80;99.90;;;;;;4992716;28;20437;-91
2021/09/14 06:22:34;;;;;;;14.07;8.47;;;;;;;;;;4995261;28;20449;-90
2021/09/14 06:25:03;;;;;;;10.87;6.07;;;19.20;99.90;;;;;;4995403;28;20544;-95
2021/09/14 06:27:30;;;;;;;8.73;6.00;;;;;;;;;;4994313;28;20778;-89
2021/09/14 06:29:57;;;;;;;13.47;6.30;;;;;;;;;;5000512;28;20489;-91
2021/09/14 06:32:31;;;;;;;8.10;6.00;;;20.90;99.90;;;;;;4991956;28;20480;-93
2021/09/14 06:34:58;;;;;;;6.33;5.73;;;;;;;;;;4994642;28;20577;-91
2021/09/14 06:37:26;;;;;;;6.53;5.43;;;;;;;;;;4996451;28;20441;-94
2021/09/14 06:39:53;;;;;;;8.17;5.90;;;;;;;;;;4997543;28;20449;-93
2021/09/14 06:42:21;;;;;;;14.00;5.80;;;21.90;99.90;;;;;;4997280;28;20815;-92
2021/09/14 06:44:49;;;;;;;7.63;6.00;;;;;;;;;;4994827;28;20465;-93
2021/09/14 06:47:16;;;;;;;11.63;5.53;;;;;;;;;;4998932;28;20437;-94
2021/09/14 06:49:43;;;;;;;6.50;5.87;;;;;;;;;;4994973;28;20458;-91
2021/09/14 06:52:10;;;;;;;8.10;6.20;;;;;;;;;;4994093;28;20457;-91
2021/09/14 06:54:38;;;;;;;12.93;5.97;;;;;;;;;;4993765;28;20501;-91
2021/09/14 06:57:05;;;;;;;11.13;6.30;;;;;;;;;;4993929;28;20488;-91
2021/09/14 06:59:33;;;;;;;7.73;5.63;;;22.00;99.90;;;;;;4992936;28;20449;-94
2021/09/14 07:02:01;;;;;;;7.10;6.40;;;;;;;;;;4990536;28;20944;-94
2021/09/14 07:04:28;;;;;;;5.93;5.00;;;;;;;;;;4994472;28;20453;-93
2021/09/14 07:06:55;;;;;;;5.60;5.10;;;;;;;;;;4994139;28;20975;-93
2021/09/14 07:09:22;;;;;;;4.40;4.10;;;;;;;;;;4994576;28;20441;-93
2021/09/14 07:11:50;;;;;;;5.47;5.00;;;;;;;;;;4994821;28;20549;-92
2021/09/14 07:14:17;;;;;;;5.70;5.00;;;;;;;;;;4994787;28;20512;-93
2021/09/14 07:16:45;;;;;;;5.40;4.90;;;20.70;99.90;;;;;;4991303;28;20461;-95
2021/09/14 07:19:12;;;;;;;5.43;4.93;;;;;;;;;;4999605;28;20449;-92
2021/09/14 07:21:39;;;;;;;7.30;4.97;;;;;;;;;;5004695;28;20561;-93
2021/09/14 07:24:07;;;;;;;5.10;4.70;;;;;;;;;;4999015;28;20453;-95
2021/09/14 07:26:34;;;;;;;5.43;4.93;;;21.90;99.90;;;;;;4996042;28;20488;-94
2021/09/14 07:29:01;;;;;;;5.53;5.03;;;;;;;;;;4998403;28;20472;-91
2021/09/14 07:31:30;;;;;;;5.13;4.63;;;21.60;99.90;;;;;;4997650;28;20468;-93
2021/09/14 07:33:58;;;;;;;5.57;5.07;;;22.20;99.90;;;;;;4995855;28;20480;-89
2021/09/14 07:36:26;;;;;;;5.17;4.77;;;;;;;;;;4995556;28;20499;-94
2021/09/14 07:38:53;;;;;;;5.23;4.73;;;;;;;;;;4998986;28;20442;-92
2021/09/14 07:41:20;;;;;;;5.60;5.20;;;;;;;;;;4998796;28;20449;-95
2021/09/14 07:43:47;;;;;;;6.60;4.80;;;;;;;;;;4998577;28;20465;-94
2021/09/14 07:46:15;;;;;;;5.80;5.30;;;;;;;;;;4997609;28;20952;-93
2021/09/14 07:48:41;;;;;;;5.27;4.83;;;23.80;99.90;;;;;;4994806;28;20448;-93
2021/09/14 07:51:10;;;;;;;5.17;4.70;;;24.00;99.90;;;;;;4994993;28;20948;-93
2021/09/14 07:53:37;;;;;;;5.17;4.77;;;;;;;;;;4995311;28;20956;-91
2021/09/14 07:56:04;;;;;;;5.53;5.03;;;24.20;99.90;;;;;;4997771;28;20492;-94
2021/09/14 07:58:31;;;;;;;5.83;5.20;;;24.90;99.90;;;;;;4998229;28;20449;-94
2021/09/14 08:00:58;;;;;;;4.80;4.50;;;;;;;;;;4994438;28;20799;-94
2021/09/14 08:03:25;;;;;;;5.30;4.90;;;;;;;;;;4995367;28;20533;-95
2021/09/14 08:05:52;;;;;;;5.57;4.90;;;;;;;;;;4998287;28;20920;-93
2021/09/14 08:08:21;;;;;;;5.20;4.70;;;25.70;99.90;;;;;;4997957;28;20446;-95
2021/09/14 08:10:48;;;;;;;5.63;5.13;;;;;;;;;;4994979;28;20781;-93
2021/09/14 08:13:15;;;;;;;7.30;5.80;;;;;;;;;;4997803;28;20441;-94
2021/09/14 08:15:42;;;;;;;5.20;4.67;;;;;;;;;;4997282;28;20481;-93
2021/09/14 08:18:10;;;;;;;5.33;4.93;;;;;;;;;;4997994;28;20440;-91
2021/09/14 08:20:37;;;;;;;5.23;4.77;;;;;;;;;;4994814;28;20449;-93
2021/09/14 08:23:04;;;;;;;5.17;4.70;;;;;;;;;;4997375;28;20465;-92
2021/09/14 08:25:32;;;;;;;5.80;5.27;;;23.90;99.90;;;;;;4997383;28;20458;-90
2021/09/14 08:28:00;;;;;;;5.73;5.00;;;;;;;;;;4997217;28;20460;-94
2021/09/14 08:30:27;;;;;;;5.40;5.00;;;;;;;;;;4996865;28;20479;-93
2021/09/14 08:32:54;;;;;;;6.10;5.00;;;;;;;;;;4994258;28;20426;-94
2021/09/14 08:35:21;;;;;;;5.73;5.23;;;;;;;;;;4997155;28;20492;-92
2021/09/14 08:37:49;;;;;;;5.37;4.93;;;;;;;;;;4994303;28;20990;-94
2021/09/14 08:40:16;;;;;;;9.23;5.03;;;25.30;99.90;;;;;;4996654;28;20445;-90
2021/09/14 08:42:44;;;;;;;7.63;5.00;;;24.40;99.90;;;;;;4996596;28;20474;-89
2021/09/14 08:45:12;;;;;;;5.30;4.90;;;24.90;99.90;;;;;;4997778;28;20457;-89
2021/09/14 08:47:40;;;;;;;5.23;4.50;;;25.00;99.90;;;;;;4997313;28;20445;-88
2021/09/14 08:50:09;;;;;;;7.10;4.97;;;25.70;99.90;;;;;;4999377;28;20468;-93
2021/09/14 08:52:36;;;;;;;5.33;4.93;;;26.20;99.90;;;;;;4997974;28;20457;-92
2021/09/14 08:55:03;;;;;;;4.77;4.37;;;;;;;;;;4996074;28;20453;-91
2021/09/14 08:57:30;;;;;;;4.63;4.23;;;26.40;99.90;;;;;;4996188;28;20456;-93
2021/09/14 08:59:58;;;;;;;5.70;5.20;;;26.40;99.90;;;;;;4994676;28;20464;-89
2021/09/14 09:02:25;;;;;;;6.57;4.70;;;26.70;99.90;;;;;;4992917;28;20453;-89
2021/09/14 09:05:00;;;;;;;4.90;4.60;;;27.40;99.90;;;;;;4995658;28;20453;-89
2021/09/14 09:07:29;;;;;;;5.60;5.03;;;27.80;99.90;;;;;;4995796;28;20464;-90
2021/09/14 09:09:56;;;;;;;5.40;5.00;;;;;;;;;;4990170;28;20445;-90
2021/09/14 09:12:23;;;;;;;4.50;4.10;;;26.80;99.90;;;;;;4995984;28;20959;-93
2021/09/14 09:14:50;;;;;;;5.90;5.40;;;;;;;;;;4991634;28;21191;-92
2021/09/14 09:17:19;;;;;;;5.10;4.63;;;28.40;97.80;;;;;;4993368;28;20579;-95
2021/09/14 09:19:55;;;;;;;6.17;5.57;;;27.40;99.50;;;;;;4992666;28;20811;-89
2021/09/14 09:22:24;;;;;;;5.23;4.83;;;28.10;98.80;;;;;;4995783;28;20456;-94
2021/09/14 09:24:53;;;;;;;4.87;4.47;;;28.70;96.90;;;;;;4994645;28;20461;-90
2021/09/14 09:27:22;;;;;;;6.27;5.30;;;29.20;96.00;;;;;;4995913;28;20456;-89
2021/09/14 09:29:59;;;;;;;4.83;4.40;;;28.50;99.90;;;;;;4994387;28;20481;-91
2021/09/14 09:32:42;;;;;;;4.67;4.37;;;28.00;98.40;;;;;;4989095;28;20464;-91
2021/09/14 09:35:10;;;;;;;5.03;4.63;;;27.70;98.40;;;;;;4994993;28;20817;-89
2021/09/14 09:37:37;;;;;;;4.90;4.60;;;;;;;;;;4995418;28;20460;-94
2021/09/14 09:40:05;;;;;;;4.83;4.53;;;28.50;96.70;;;;;;4995828;28;20460;-91
2021/09/14 09:42:32;;;;;;;5.40;3.97;;;;;;;;;;5006750;28;20466;-91
2021/09/14 09:45:02;;;;;;;4.83;4.43;;;28.90;96.30;;;;;;4998985;28;20454;-94
2021/09/14 09:47:30;;;;;;;4.53;4.13;;;27.80;97.40;;;;;;4990817;28;20465;-93
2021/09/14 09:49:57;;;;;;;5.10;4.70;;;;;;;;;;4992708;28;20936;-92
2021/09/14 09:52:25;;;;;;;6.30;4.80;;;;;;;;;;4989016;28;20464;-90
2021/09/14 09:54:53;;;;;;;5.90;5.40;;;;;;;;;;4993648;28;20444;-96
2021/09/14 09:57:20;;;;;;;5.67;4.73;;;;;;;;;;4999271;28;20503;-90
2021/09/14 09:59:48;;;;;;;6.10;4.97;;;;;;;;;;4993616;28;20509;-93
2021/09/14 10:02:18;;;;;;;6.97;5.77;;;28.90;97.20;;;;;;4990800;28;20445;-90
2021/09/14 10:04:52;;;;;;;5.70;4.80;;;28.80;98.40;;;;;;4994448;28;20519;-90
2021/09/14 10:07:20;;;;;;;5.77;5.27;;;28.20;98.70;;;;;;4991237;28;20961;-92
2021/09/14 10:09:52;;;;;;;4.80;4.40;;;27.90;96.60;;;;;;4994158;28;20445;-90
2021/09/14 10:12:27;;;;;;;4.50;4.10;;;29.00;96.80;;;;;;4994859;28;20445;-89
2021/09/14 10:15:01;;;;;;;5.23;4.43;;;28.90;96.40;;;;;;4993395;28;20453;-91
2021/09/14 10:17:28;;;;;;;5.47;4.97;;;;;;;;;;4993988;28;20507;-88
2021/09/14 10:19:57;;;;;;;4.77;4.00;;;27.60;97.40;;;;;;4993998;28;20804;-89
2021/09/14 10:22:27;;;;;;;4.90;4.50;;;27.20;98.50;;;;;;4994112;28;20457;-89
2021/09/14 10:25:01;;;;;;;6.83;4.67;;;27.80;98.90;;;;;;4991506;28;20457;-90
2021/09/14 10:27:37;;;;;;;5.03;4.63;;;27.80;98.30;;;;;;4994080;28;20469;-89
2021/09/14 10:30:06;;;;;;;4.83;4.30;;;27.60;98.20;;;;;;4989740;28;20985;-89
2021/09/14 10:32:41;;;;;;;5.00;4.60;;;27.90;98.10;;;;;;4994010;28;20450;-89
2021/09/14 10:35:11;;;;;;;5.60;4.77;;;28.00;98.50;;;;;;4993858;28;20452;-90
2021/09/14 10:37:39;;;;;;;5.70;5.20;;;;;;;;;;4993652;28;20493;-88
2021/09/14 10:40:12;;;;;;;5.83;5.20;;;28.00;98.20;;;;;;4993585;28;20453;-88
2021/09/14 10:42:40;;;;;;;6.67;5.60;;;27.70;99.30;;;;;;4993734;28;20554;-88
2021/09/14 10:45:10;;;;;;;5.33;4.83;;;28.10;98.30;;;;;;4994267;28;20453;-89
2021/09/14 10:47:39;;;;;;;5.30;4.90;;;28.00;98.20;;;;;;4993978;28;20453;-92
2021/09/14 10:50:07;;;;;;;4.80;4.40;;;28.10;98.80;;;;;;4994182;28;20839;-90
2021/09/14 10:52:37;;;;;;;5.40;5.00;;;28.40;98.20;;;;;;4990883;28;20449;-90
2021/09/14 10:55:10;;;;;;;5.50;5.10;;;28.40;98.10;;;;;;4993964;28;20455;-89
2021/09/14 10:57:39;;;;;;;6.83;4.43;;;28.50;97.50;;;;;;4993958;28;20493;-89
2021/09/14 11:00:07;;;;;;;4.83;4.43;;;27.90;98.10;;;;;;4992705;28;20457;-90
2021/09/14 11:02:35;;;;;;;6.50;5.10;;;;;;;;;;4993620;28;20460;-89
2021/09/14 11:05:02;;;;;;;5.33;4.93;;;;;;;;;;4994635;28;20449;-89
2021/09/14 11:07:30;;;;;;;6.03;5.43;;;27.40;99.90;;;;;;4997658;28;20789;-91
2021/09/14 11:10:00;;;;;;;4.77;4.27;;;27.70;99.90;;;;;;4993772;28;20456;-92
2021/09/14 11:12:28;;;;;;;5.37;4.83;;;27.90;99.70;;;;;;4993844;28;20476;-90
2021/09/14 11:14:57;;;;;;;7.47;4.80;;;27.80;99.90;;;;;;4989861;28;20461;-90
2021/09/14 11:17:29;;;;;;;5.20;4.80;;;28.20;99.90;;;;;;4993300;28;20488;-91
2021/09/14 11:19:56;;;;;;;5.60;5.00;;;;;;;;;;4993113;28;20469;-89
2021/09/14 11:22:31;;;;;;;5.33;4.93;;;27.80;98.70;;;;;;4993721;28;20457;-90
2021/09/14 11:25:00;;;;;;;5.90;5.30;;;28.30;98.70;;;;;;4990732;28;20495;-90
2021/09/14 11:27:29;;;;;;;5.13;4.77;;;28.60;97.20;;;;;;4993758;28;20449;-89
2021/09/14 11:29:57;;;;;;;5.57;5.07;;;28.50;97.80;;;;;;4990916;28;20827;-90
2021/09/14 11:32:24;;;;;;;6.70;4.83;;;;;;;;;;4989734;28;20504;-90
2021/09/14 11:34:53;;;;;;;5.20;4.63;;;;;;;;;;4993101;28;20449;-89
2021/09/14 11:37:27;;;;;;;5.57;5.13;;;27.20;99.60;;;;;;4990351;28;20495;-90
2021/09/14 11:39:55;;;;;;;5.73;5.17;;;;;;;;;;4992876;28;20471;-88
2021/09/14 11:42:23;;;;;;;5.17;4.77;;;27.50;99.80;;;;;;4993006;28;20937;-88
2021/09/14 11:45:01;;;;;;;6.97;5.57;;;27.70;99.90;;;;;;4991654;28;20449;-88
2021/09/14 11:47:28;;;;;;;6.23;5.73;;;;;;;;;;4992939;28;20453;-89
2021/09/14 11:49:55;;;;;;;6.40;5.80;;;;;;;;;;4993071;28;20450;-88
2021/09/14 11:52:22;;;;;;;6.07;5.47;;;;;;;;;;4992852;28;20479;-89
2021/09/14 11:54:50;;;;;;;5.43;4.90;;;;;;;;;;4992771;28;20445;-88
2021/09/14 11:57:18;;;;;;;6.00;5.27;;;;;;;;;;4992767;28;20507;-91
2021/09/14 11:59:46;;;;;;;8.87;5.17;;;27.40;99.90;;;;;;4991748;28;20895;-87
2021/09/14 12:02:16;;;;;;;5.30;4.80;;;27.10;99.90;;;;;;4989864;28;20449;-89
2021/09/14 12:04:43;;;;;;;6.23;4.93;;;;;;;;;;4993064;28;20512;-92
2021/09/14 12:07:18;;;;;;;5.70;5.30;;;26.80;99.90;;;;;;4999752;28;20472;-91
2021/09/14 12:09:45;;;;;;;6.47;5.83;;;;;;;;;;4996047;28;20468;-91
2021/09/14 12:12:13;;;;;;;6.30;5.47;;;;;;;;;;4997050;28;20468;-91
2021/09/14 12:14:40;;;;;;;8.13;5.60;;;;;;;;;;4995257;28;20449;-92
2021/09/14 12:17:08;;;;;;;5.37;4.87;;;26.20;99.90;;;;;;4996781;28;20496;-91
2021/09/14 12:19:36;;;;;;;6.30;4.67;;;26.40;99.90;;;;;;4992000;28;20449;-95
2021/09/14 12:22:04;;;;;;;5.70;5.30;;;;;;;;;;4996843;28;20460;-91
2021/09/14 12:24:31;;;;;;;5.20;4.80;;;;;;;;;;4996768;28;20617;-92
2021/09/14 12:27:00;;;;;;;5.43;4.47;;;27.30;99.90;;;;;;4996546;28;20460;-92
2021/09/14 12:29:27;;;;;;;4.57;4.13;;;;;;;;;;4995906;28;20482;-90
2021/09/14 12:31:54;;;;;;;5.53;4.93;;;;;;;;;;4996080;28;20793;-95
2021/09/14 12:34:23;;;;;;;5.73;4.70;;;26.70;99.90;;;;;;4996724;28;20445;-92
2021/09/14 12:36:51;;;;;;;7.47;5.27;;;;;;;;;;4996354;28;20497;-91
2021/09/14 12:39:20;;;;;;;4.83;4.43;;;;;;;;;;4996590;28;20912;-92
2021/09/14 12:41:47;;;;;;;5.57;5.07;;;;;;;;;;4996623;28;20457;-91
2021/09/14 12:44:14;;;;;;;5.90;5.40;;;;;;;;;;4994012;28;20955;-91
2021/09/14 12:46:41;;;;;;;9.30;5.40;;;;;;;;;;4999968;28;20453;-91
2021/09/14 12:49:08;;;;;;;6.20;5.60;;;;;;;;;;5002536;28;20467;-90
2021/09/14 12:51:37;;;;;;;6.53;5.83;;;28.40;99.90;;;;;;4996525;28;20445;-94
2021/09/14 12:54:04;;;;;;;6.23;5.63;;;;;;;;;;4991409;28;20441;-92
2021/09/14 12:56:31;;;;;;;6.03;5.13;;;;;;;;;;4996377;28;20983;-91
2021/09/14 12:58:58;;;;;;;5.70;5.00;;;;;;;;;;4996604;28;20449;-92
2021/09/14 13:01:25;;;;;;;5.83;5.43;;;;;;;;;;4995283;28;20473;-93
2021/09/14 13:03:53;;;;;;;5.80;5.27;;;;;;;;;;4996065;28;20457;-92
2021/09/14 13:06:20;;;;;;;6.17;5.67;;;;;;;;;;4996339;28;20457;-93
2021/09/14 13:08:48;;;;;;;6.33;5.73;;;28.90;98.90;;;;;;4993180;28;20449;-92
2021/09/14 13:11:15;;;;;;;6.50;5.90;;;;;;;;;;4993460;28;20528;-92
2021/09/14 13:16:27;;;;;;;6.53;5.60;;;;;;;;;;4996005;28;20433;-91
2021/09/14 13:18:54;;;;;;;8.13;5.03;;;;;;;;;;5000266;28;20523;-92
2021/09/14 13:21:24;;;;;;;5.97;5.47;;;28.00;99.90;;;;;;5002455;23;20512;-92
2021/09/14 13:23:53;;;;;;;5.83;5.23;;;27.70;99.90;;;;;;4983752;28;20461;-92
2021/09/14 13:26:21;;;;;;;6.37;5.77;;;27.70;99.90;;;;;;4980058;28;20528;-91
2021/09/14 13:28:48;;;;;;;7.63;5.87;;;;;;;;;;4979061;28;20447;-93
2021/09/14 13:31:16;;;;;;;6.47;5.77;;;;;;;;;;4982482;28;20446;-93
2021/09/14 13:33:43;;;;;;;5.33;4.80;;;;;;;;;;4983805;28;20458;-91
2021/09/14 13:36:11;;;;;;;6.27;5.33;;;;;;;;;;4982499;28;20451;-92
2021/09/14 13:38:38;;;;;;;6.80;6.00;;;;;;;;;;4984955;28;20875;-93
2021/09/14 13:41:10;;;;;;;6.27;5.77;;;28.50;98.60;;;;;;4979803;28;20462;-91
2021/09/14 13:43:50;;;;;;;6.93;5.40;;;;;;;;;;4975916;28;20466;-91
2021/09/14 13:46:17;;;;;;;5.90;5.40;;;;;;;;;;4974551;28;20461;-91
2021/09/14 13:48:45;;;;;;;6.10;5.60;;;29.10;97.60;;;;;;4976489;28;20445;-93
2021/09/14 13:51:15;;;;;;;7.60;6.90;;;29.10;97.40;;;;;;4976427;28;20458;-94
2021/09/14 13:53:43;;;;;;;9.20;5.47;;;;;;;;;;4978645;28;20461;-93
2021/09/14 13:56:18;;;;;;;6.60;6.00;;;28.90;97.00;;;;;;4979682;28;20446;-94
2021/09/14 13:58:45;;;;;;;6.87;6.17;;;;;;;;;;4985160;28;20519;-91
2021/09/14 14:01:12;;;;;;;6.00;5.50;;;;;;;;;;4977237;28;20462;-90
2021/09/14 14:03:39;;;;;;;7.23;6.53;;;;;;;;;;4976759;28;20454;-92
2021/09/14 14:06:06;;;;;;;6.03;5.63;;;;;;;;;;4975361;28;20965;-90
2021/09/14 14:08:35;;;;;;;5.70;5.20;;;27.40;99.90;;;;;;4967082;28;20454;-93
2021/09/14 14:11:02;;;;;;;7.53;5.77;;;;;;;;;;4975232;28;20936;-91
2021/09/14 14:13:30;;;;;;;5.87;5.20;;;27.70;99.90;;;;;;4972031;28;20755;-93
2021/09/14 14:15:57;;;;;;;6.40;5.80;;;28.10;99.90;;;;;;4974798;28;20454;-94
2021/09/14 14:18:24;;;;;;;5.90;5.40;;;;;;;;;;4976247;28;20517;-94
2021/09/14 14:20:51;;;;;;;5.93;5.40;;;;;;;;;;4983328;28;20462;-90
2021/09/14 14:23:18;;;;;;;8.70;5.70;;;;;;;;;;4982181;28;20838;-93
2021/09/14 14:25:46;;;;;;;6.23;5.73;;;;;;;;;;4973114;28;20453;-90
2021/09/14 14:28:13;;;;;;;6.13;5.63;;;;;;;;;;4975709;28;20501;-90
2021/09/14 14:30:41;;;;;;;6.63;6.00;;;28.80;99.90;;;;;;4962922;28;20458;-92
2021/09/14 14:33:09;;;;;;;6.10;5.37;;;;;;;;;;4974650;28;20457;-94
2021/09/14 14:35:36;;;;;;;6.77;6.17;;;;;;;;;;4971615;28;20450;-88
2021/09/14 14:38:04;;;;;;;6.23;5.60;;;27.60;99.90;;;;;;4974855;28;20489;-93
2021/09/14 14:40:32;;;;;;;6.30;5.80;;;;;;;;;;4972131;28;20454;-91
2021/09/14 14:42:59;;;;;;;7.43;6.60;;;;;;;;;;4972403;28;20822;-89
2021/09/14 14:45:26;;;;;;;7.00;6.30;;;;;;;;;;4971089;28;20469;-91